createdAt,value
2023-03-20T00:01:18.710Z,3.64
2023-03-20T00:03:48.511Z,3.63
2023-03-20T00:06:18.302Z,3.62
2023-03-20T00:08:47.657Z,3.58
2023-03-20T00:11:23.354Z,3.56
2023-03-20T00:13:52.445Z,3.51
2023-03-20T00:16:21.622Z,3.45
2023-03-20T00:18:50.841Z,3.37
2023-03-20T00:21:22.936Z,3.30
2023-03-20T00:23:53.927Z,3.23
2023-03-20T00:26:27.092Z,3.16
2023-03-20T00:28:59.290Z,3.08
2023-03-20T00:31:28.794Z,3.00
2023-03-20T00:33:57.967Z,2.90
2023-03-20T00:36:26.514Z,2.80
2023-03-20T00:38:58.239Z,2.71
2023-03-20T00:41:26.632Z,2.62
2023-03-20T00:43:59.594Z,2.56
2023-03-20T00:46:28.227Z,2.49
2023-03-20T00:48:56.512Z,2.43
2023-03-20T00:51:24.752Z,2.38
2023-03-20T00:53:53.309Z,2.33
2023-03-20T00:56:31.783Z,2.30
2023-03-20T00:59:01.059Z,2.26
2023-03-20T01:01:29.652Z,2.21
2023-03-20T01:03:58.458Z,2.17
2023-03-20T01:06:26.663Z,2.14
2023-03-20T01:08:57.913Z,2.12
2023-03-20T01:11:27.029Z,2.10
2023-03-20T01:13:58.901Z,2.04
2023-03-20T01:16:27.362Z,2.01
2023-03-20T01:18:55.977Z,2.00
2023-03-20T01:21:26.046Z,1.98
2023-03-20T01:23:54.424Z,1.95
2023-03-20T01:26:29.526Z,1.93
2023-03-20T01:28:57.780Z,1.91
2023-03-20T01:31:27.347Z,1.89
2023-03-20T01:34:03.326Z,1.86
2023-03-20T01:36:32.218Z,1.84
2023-03-20T01:39:00.701Z,1.83
2023-03-20T01:41:29.076Z,1.80
2023-03-20T01:43:57.736Z,1.76
2023-03-20T01:46:28.787Z,1.74
2023-03-20T01:49:05.966Z,1.72
2023-03-20T01:51:37.954Z,1.71
2023-03-20T01:54:12.836Z,1.69
2023-03-20T01:57:21.472Z,1.65
2023-03-20T01:59:51.768Z,1.59
2023-03-20T02:02:21.652Z,1.56
2023-03-20T02:04:51.287Z,1.53
2023-03-20T02:07:20.253Z,1.49
2023-03-20T02:10:09.838Z,1.46
2023-03-20T02:13:08.074Z,1.44
2023-03-20T02:15:59.123Z,1.42
2023-03-20T02:18:43.057Z,1.40
2023-03-20T02:21:30.566Z,1.38
2023-03-20T02:24:18.746Z,1.37
2023-03-20T02:26:50.209Z,1.36
2023-03-20T02:29:30.612Z,1.35
2023-03-20T02:32:17.617Z,1.31
2023-03-20T02:34:46.047Z,1.27
2023-03-20T02:37:33.303Z,1.24
2023-03-20T02:40:01.800Z,1.22
2023-03-20T02:42:48.600Z,1.20
2023-03-20T02:45:16.827Z,1.16
2023-03-20T02:47:49.697Z,1.15
2023-03-20T02:50:29.327Z,1.14
2023-03-20T02:52:57.968Z,1.14
2023-03-20T02:55:30.748Z,1.15
2023-03-20T02:58:02.854Z,1.16
2023-03-20T03:00:35.693Z,1.15
2023-03-20T03:03:21.034Z,1.14
2023-03-20T03:06:09.322Z,1.14
2023-03-20T03:08:38.499Z,1.14
2023-03-20T03:11:08.820Z,1.12
2023-03-20T03:13:43.308Z,1.09
2023-03-20T03:16:13.871Z,1.08
2023-03-20T03:18:42.258Z,1.08
2023-03-20T03:21:11.148Z,1.09
2023-03-20T03:23:45.826Z,1.10
2023-03-20T03:26:37.472Z,1.10
2023-03-20T03:29:15.895Z,1.10
2023-03-20T03:31:44.770Z,1.13
2023-03-20T03:34:13.952Z,1.13
2023-03-20T03:36:49.815Z,1.10
2023-03-20T03:39:24.365Z,1.07
2023-03-20T03:42:25.143Z,1.08
2023-03-20T03:44:58.062Z,1.08
2023-03-20T03:47:31.590Z,1.06
2023-03-20T03:50:06.923Z,1.04
2023-03-20T03:52:35.831Z,1.00
2023-03-20T03:55:08.357Z,0.96
2023-03-20T03:58:12.082Z,0.94
2023-03-20T04:00:41.183Z,0.96
2023-03-20T04:03:09.572Z,0.98
2023-03-20T04:05:43.076Z,1.00
2023-03-20T04:08:11.390Z,1.02
2023-03-20T04:10:42.420Z,1.04
2023-03-20T04:13:12.012Z,1.08
2023-03-20T04:15:42.648Z,1.13
2023-03-20T04:18:14.866Z,1.18
2023-03-20T04:20:44.766Z,1.26
2023-03-20T04:23:13.288Z,1.37
2023-03-20T04:25:41.585Z,1.46
2023-03-20T04:28:11.802Z,1.54
2023-03-20T04:31:11.430Z,1.69
2023-03-20T04:33:55.843Z,2.10
2023-03-20T04:36:44.428Z,2.80
2023-03-20T04:39:14.664Z,3.42
2023-03-20T04:41:43.206Z,3.91
2023-03-20T04:44:12.477Z,4.34
2023-03-20T04:46:44.747Z,4.69
2023-03-20T04:49:22.498Z,4.64
2023-03-20T04:51:51.265Z,4.41
2023-03-20T04:54:28.796Z,4.13
2023-03-20T04:56:57.392Z,3.86
2023-03-20T04:59:26.542Z,3.61
2023-03-20T05:01:58.802Z,3.43
2023-03-20T05:04:28.091Z,3.27
2023-03-20T05:06:56.914Z,3.16
2023-03-20T05:09:31.737Z,3.07
2023-03-20T05:12:03.375Z,2.94
2023-03-20T05:14:58.006Z,2.82
2023-03-20T05:17:58.334Z,2.75
2023-03-20T05:20:56.266Z,2.71
2023-03-20T05:23:53.926Z,2.70
2023-03-20T05:26:31.116Z,2.71
2023-03-20T05:29:18.846Z,2.77
2023-03-20T05:32:07.774Z,2.85
2023-03-20T05:34:47.494Z,2.89
2023-03-20T05:37:26.032Z,2.92
2023-03-20T05:40:26.767Z,2.93
2023-03-20T05:43:06.284Z,2.93
2023-03-20T05:45:43.114Z,2.92
2023-03-20T05:48:29.807Z,2.94
2023-03-20T05:51:18.074Z,2.98
2023-03-20T05:54:08.499Z,3.06
2023-03-20T05:56:42.687Z,3.10
2023-03-20T05:59:34.118Z,3.11
2023-03-20T06:02:22.664Z,3.10
2023-03-20T06:04:56.606Z,3.03
2023-03-20T06:07:30.579Z,2.94
2023-03-20T06:10:10.435Z,2.85
2023-03-20T06:12:39.725Z,2.79
2023-03-20T06:15:08.386Z,2.82
2023-03-20T06:17:43.087Z,2.90
2023-03-20T06:20:14.806Z,2.96
2023-03-20T06:22:43.739Z,3.03
2023-03-20T06:25:15.324Z,3.14
2023-03-20T06:27:43.994Z,3.31
2023-03-20T06:30:15.192Z,3.44
2023-03-20T06:32:44.061Z,3.58
2023-03-20T06:35:13.651Z,3.72
2023-03-20T06:37:45.708Z,3.84
2023-03-20T06:40:17.783Z,4.00
2023-03-20T06:42:49.849Z,4.15
2023-03-20T06:45:18.339Z,4.32
2023-03-20T06:48:07.723Z,4.39
2023-03-20T06:50:36.599Z,4.42
2023-03-20T06:53:05.807Z,4.50
2023-03-20T06:55:48.846Z,4.59
2023-03-20T06:58:17.293Z,4.57
2023-03-20T07:00:46.846Z,4.51
2023-03-20T07:03:16.869Z,4.52
2023-03-20T07:05:47.295Z,4.63
2023-03-20T07:08:15.642Z,4.74
2023-03-20T07:10:43.862Z,4.77
2023-03-20T07:13:14.512Z,5.05
2023-03-20T07:15:57.510Z,5.55
2023-03-20T07:18:32.987Z,6.16
2023-03-20T07:21:03.438Z,6.55
2023-03-20T07:23:32.800Z,6.70
2023-03-20T07:26:01.344Z,6.61
2023-03-20T07:28:30.958Z,6.51
2023-03-20T07:31:14.974Z,6.61
2023-03-20T07:33:43.614Z,6.90
2023-03-20T07:36:11.779Z,7.15
2023-03-20T07:38:41.436Z,7.32
2023-03-20T07:41:11.476Z,7.97
2023-03-20T07:43:44.708Z,9.30
2023-03-20T07:46:26.565Z,10.85
2023-03-20T07:48:56.780Z,11.75
2023-03-20T07:51:25.444Z,12.15
2023-03-20T07:53:54.246Z,12.70
2023-03-20T07:56:22.628Z,13.18
2023-03-20T07:58:52.133Z,13.57
2023-03-20T08:01:20.606Z,13.86
2023-03-20T08:03:48.955Z,14.08
2023-03-20T08:06:29.384Z,14.08
2023-03-20T08:08:57.744Z,13.92
2023-03-20T08:11:28.367Z,13.44
2023-03-20T08:13:56.585Z,12.69
2023-03-20T08:16:25.455Z,12.45
2023-03-20T08:18:56.355Z,12.46
2023-03-20T08:21:24.541Z,12.58
2023-03-20T08:23:52.641Z,12.94
2023-03-20T08:26:21.928Z,13.06
2023-03-20T08:28:51.456Z,13.07
2023-03-20T08:31:20.798Z,12.91
2023-03-20T08:33:49.163Z,12.65
2023-03-20T08:36:20.575Z,12.27
2023-03-20T08:38:54.562Z,12.01
2023-03-20T08:41:22.984Z,11.92
2023-03-20T08:43:51.112Z,11.83
2023-03-20T08:46:19.598Z,11.97
2023-03-20T08:48:47.924Z,12.21
2023-03-20T08:51:16.429Z,12.09
2023-03-20T08:53:44.641Z,11.96
2023-03-20T08:56:12.987Z,11.91
2023-03-20T08:58:41.858Z,11.99
2023-03-20T09:01:10.163Z,12.11
2023-03-20T09:03:38.454Z,12.10
2023-03-20T09:06:07.196Z,11.95
2023-03-20T09:08:35.738Z,11.84
2023-03-20T09:11:04.149Z,11.70
2023-03-20T09:13:32.819Z,11.75
2023-03-20T09:16:01.090Z,11.92
2023-03-20T09:18:29.451Z,12.17
2023-03-20T09:20:57.871Z,12.41
2023-03-20T09:23:26.032Z,12.62
2023-03-20T09:25:55.069Z,13.07
2023-03-20T09:28:23.738Z,13.65
2023-03-20T09:30:57.233Z,14.07
2023-03-20T09:33:25.657Z,14.32
2023-03-20T09:35:53.880Z,14.51
2023-03-20T09:38:22.227Z,14.64
2023-03-20T09:40:50.977Z,14.86
2023-03-20T09:43:37.919Z,14.87
2023-03-20T09:46:06.949Z,14.68
2023-03-20T09:48:38.397Z,14.76
2023-03-20T09:51:16.333Z,15.02
2023-03-20T09:54:05.453Z,15.17
2023-03-20T09:56:33.839Z,15.20
2023-03-20T09:59:02.777Z,15.37
2023-03-20T10:01:34.122Z,15.38
2023-03-20T10:04:08.924Z,15.15
2023-03-20T10:06:37.231Z,14.94
2023-03-20T10:09:26.391Z,14.81
2023-03-20T10:12:08.529Z,14.67
2023-03-20T10:14:39.517Z,14.68
2023-03-20T10:17:22.041Z,14.84
2023-03-20T10:20:04.602Z,14.87
2023-03-20T10:22:33.652Z,14.83
2023-03-20T10:25:05.065Z,14.84
2023-03-20T10:27:34.726Z,14.90
2023-03-20T10:30:12.232Z,14.97
2023-03-20T10:33:00.235Z,15.02
2023-03-20T10:35:47.151Z,15.14
2023-03-20T10:38:27.236Z,15.20
2023-03-20T10:40:58.095Z,15.22
2023-03-20T10:43:38.845Z,15.18
2023-03-20T10:46:10.697Z,15.08
2023-03-20T10:48:40.941Z,15.11
2023-03-20T10:51:14.405Z,15.08
2023-03-20T10:54:02.497Z,14.97
2023-03-20T10:56:32.989Z,15.00
2023-03-20T10:59:04.766Z,15.05
2023-03-20T11:01:37.612Z,14.86
2023-03-20T11:04:07.545Z,14.70
2023-03-20T11:06:39.799Z,14.59
2023-03-20T11:09:13.031Z,14.58
2023-03-20T11:11:44.603Z,14.49
2023-03-20T11:14:23.072Z,14.39
2023-03-20T11:16:55.197Z,14.23
2023-03-20T11:19:24.443Z,14.04
2023-03-20T11:21:57.460Z,13.97
2023-03-20T11:24:41.961Z,14.13
2023-03-20T11:27:14.372Z,14.17
2023-03-20T11:29:45.723Z,14.13
2023-03-20T11:32:17.196Z,14.07
2023-03-20T11:34:46.176Z,14.01
2023-03-20T11:37:23.856Z,13.87
2023-03-20T11:39:59.036Z,13.64
2023-03-20T11:42:28.419Z,13.36
2023-03-20T11:45:00.614Z,13.04
2023-03-20T11:47:34.538Z,12.82
2023-03-20T11:50:05.372Z,12.73
2023-03-20T11:52:35.456Z,12.71
2023-03-20T11:55:04.877Z,12.63
2023-03-20T11:57:33.348Z,12.39
2023-03-20T12:00:37.646Z,12.13
2023-03-20T12:03:42.453Z,11.76
2023-03-20T12:06:19.233Z,11.53
2023-03-20T12:08:50.671Z,11.36
2023-03-20T12:11:22.218Z,11.17
2023-03-20T12:13:51.679Z,11.03
2023-03-20T12:16:21.301Z,10.83
2023-03-20T12:18:51.283Z,10.66
2023-03-20T12:21:23.152Z,10.51
2023-03-20T12:23:58.667Z,10.40
2023-03-20T12:26:32.684Z,10.30
2023-03-20T12:29:01.621Z,10.15
2023-03-20T12:31:31.318Z,10.04
2023-03-20T12:34:07.016Z,9.96
2023-03-20T12:36:44.975Z,9.83
2023-03-20T12:39:16.975Z,9.72
2023-03-20T12:41:49.855Z,9.63
2023-03-20T12:44:20.145Z,9.63
2023-03-20T12:46:48.272Z,9.59
2023-03-20T12:49:16.481Z,9.55
2023-03-20T12:52:03.312Z,9.50
2023-03-20T12:54:34.612Z,9.48
2023-03-20T12:57:05.867Z,9.39
2023-03-20T12:59:37.197Z,9.25
2023-03-20T13:02:20.862Z,9.10
2023-03-20T13:04:51.911Z,9.00
2023-03-20T13:07:22.037Z,8.96
2023-03-20T13:09:53.466Z,8.96
2023-03-20T13:12:27.696Z,8.98
2023-03-20T13:15:14.956Z,8.96
2023-03-20T13:17:48.457Z,8.91
2023-03-20T13:20:27.432Z,8.86
2023-03-20T13:22:58.680Z,8.84
2023-03-20T13:25:30.012Z,8.80
2023-03-20T13:28:19.122Z,8.74
2023-03-20T13:30:51.595Z,8.74
2023-03-20T13:33:32.199Z,8.74
2023-03-20T13:36:19.265Z,8.74
2023-03-20T13:38:48.658Z,8.71
2023-03-20T13:41:17.071Z,8.66
2023-03-20T13:43:47.400Z,8.61
2023-03-20T13:46:19.505Z,8.56
2023-03-20T13:48:47.838Z,8.54
2023-03-20T13:51:24.468Z,8.54
2023-03-20T13:54:12.096Z,8.48
2023-03-20T13:56:49.424Z,8.44
2023-03-20T13:59:36.579Z,8.41
2023-03-20T14:02:08.668Z,8.38
2023-03-20T14:04:38.591Z,8.37
2023-03-20T14:07:26.079Z,8.37
2023-03-20T14:09:54.514Z,8.36
2023-03-20T14:12:26.744Z,8.33
2023-03-20T14:15:00.983Z,8.28
2023-03-20T14:17:30.973Z,8.25
2023-03-20T14:20:09.190Z,8.21
2023-03-20T14:22:38.997Z,8.16
2023-03-20T14:25:08.554Z,8.12
2023-03-20T14:27:52.937Z,8.08
2023-03-20T14:30:30.139Z,8.02
2023-03-20T14:33:13.642Z,7.96
2023-03-20T14:35:52.562Z,7.94
2023-03-20T14:38:20.884Z,7.90
2023-03-20T14:41:04.329Z,7.86
2023-03-20T14:43:38.628Z,7.84
2023-03-20T14:46:07.415Z,7.83
2023-03-20T14:48:38.185Z,7.83
2023-03-20T14:51:14.652Z,7.80
2023-03-20T14:53:42.885Z,7.77
2023-03-20T14:56:13.523Z,7.71
2023-03-20T14:58:43.423Z,7.66
2023-03-20T15:01:20.086Z,7.60
2023-03-20T15:03:53.974Z,7.51
2023-03-20T15:06:22.263Z,7.44
2023-03-20T15:08:55.293Z,7.38
2023-03-20T15:11:23.619Z,7.34
2023-03-20T15:13:53.767Z,7.31
2023-03-20T15:16:26.159Z,7.28
2023-03-20T15:18:54.311Z,7.25
2023-03-20T15:21:28.789Z,7.21
2023-03-20T15:23:57.572Z,7.17
2023-03-20T15:26:25.986Z,7.13
2023-03-20T15:29:04.512Z,7.08
2023-03-20T15:31:33.893Z,7.02
2023-03-20T15:34:10.053Z,6.98
2023-03-20T15:36:39.776Z,6.95
2023-03-20T15:39:14.070Z,6.89
2023-03-20T15:41:46.824Z,6.82
2023-03-20T15:44:15.089Z,6.73
2023-03-20T15:47:02.613Z,6.65
2023-03-20T15:49:32.389Z,6.53
2023-03-20T15:52:01.356Z,6.42
2023-03-20T15:54:31.174Z,6.31
2023-03-20T15:57:03.404Z,6.20
2023-03-20T15:59:32.752Z,6.10
2023-03-20T16:02:01.216Z,6.00
2023-03-20T16:04:29.528Z,5.92
2023-03-20T16:06:59.318Z,5.83
2023-03-20T16:09:28.850Z,5.74
2023-03-20T16:12:01.373Z,5.66
2023-03-20T16:14:31.747Z,5.58
2023-03-20T16:17:00.556Z,5.51
2023-03-20T16:19:29.180Z,5.45
2023-03-20T16:21:58.672Z,5.40
2023-03-20T16:24:30.451Z,5.35
2023-03-20T16:26:58.770Z,5.31
2023-03-20T16:29:27.501Z,5.30
2023-03-20T16:31:59.999Z,5.29
2023-03-20T16:34:32.023Z,5.29
2023-03-20T16:37:01.954Z,5.28
2023-03-20T16:39:30.404Z,5.28
2023-03-20T16:42:11.742Z,5.28
2023-03-20T16:44:40.790Z,5.26
2023-03-20T16:47:20.740Z,5.24
2023-03-20T16:49:49.806Z,5.22
2023-03-20T16:52:19.708Z,5.19
2023-03-20T16:54:47.816Z,5.16
2023-03-20T16:57:17.545Z,5.12
2023-03-20T16:59:46.028Z,5.10
2023-03-20T17:02:30.795Z,5.08
2023-03-20T17:05:02.735Z,5.07
2023-03-20T17:07:31.591Z,5.06
2023-03-20T17:10:17.281Z,5.06
2023-03-20T17:12:46.910Z,5.05
2023-03-20T17:15:19.185Z,5.04
2023-03-20T17:17:47.586Z,5.03
2023-03-20T17:20:20.118Z,5.01
2023-03-20T17:22:48.378Z,4.98
2023-03-20T17:25:16.782Z,4.95
2023-03-20T17:27:47.876Z,4.91
2023-03-20T17:30:20.127Z,4.87
2023-03-20T17:32:49.242Z,4.84
2023-03-20T17:35:17.602Z,4.83
2023-03-20T17:37:46.061Z,4.81
2023-03-20T17:40:21.326Z,4.79
2023-03-20T17:42:50.001Z,4.77
2023-03-20T17:45:24.152Z,4.74
2023-03-20T17:47:52.906Z,4.71
2023-03-20T17:50:24.551Z,4.67
2023-03-20T17:52:53.912Z,4.64
2023-03-20T17:55:22.383Z,4.59
2023-03-20T17:57:50.992Z,4.56
2023-03-20T18:00:23.619Z,4.53
2023-03-20T18:02:53.129Z,4.50
2023-03-20T18:05:21.381Z,4.49
2023-03-20T18:07:49.725Z,4.45
2023-03-20T18:10:24.010Z,4.42
2023-03-20T18:12:52.546Z,4.40
2023-03-20T18:15:24.343Z,4.37
2023-03-20T18:17:53.067Z,4.32
2023-03-20T18:20:26.670Z,4.27
2023-03-20T18:22:55.532Z,4.22
2023-03-20T18:25:25.981Z,4.21
2023-03-20T18:27:55.141Z,4.20
2023-03-20T18:30:24.473Z,4.20
2023-03-20T18:32:52.856Z,4.19
2023-03-20T18:35:21.534Z,4.17
2023-03-20T18:37:49.795Z,4.14
2023-03-20T18:40:21.900Z,4.11
2023-03-20T18:42:51.459Z,4.06
2023-03-20T18:45:19.907Z,4.00
2023-03-20T18:48:09.860Z,3.93
2023-03-20T18:50:43.479Z,3.89
2023-03-20T18:53:11.924Z,3.85
2023-03-20T18:55:40.118Z,3.79
2023-03-20T18:58:14.480Z,3.76
2023-03-20T19:00:42.938Z,3.71
2023-03-20T19:03:11.587Z,3.66
2023-03-20T19:05:41.678Z,3.61
2023-03-20T19:08:12.855Z,3.57
2023-03-20T19:10:44.067Z,3.55
2023-03-20T19:13:14.288Z,3.53
2023-03-20T19:15:42.720Z,3.50
2023-03-20T19:18:15.777Z,3.47
2023-03-20T19:20:45.706Z,3.43
2023-03-20T19:23:14.432Z,3.39
2023-03-20T19:25:44.079Z,3.38
2023-03-20T19:28:21.744Z,3.35
2023-03-20T19:30:52.542Z,3.33
2023-03-20T19:33:21.129Z,3.32
2023-03-20T19:36:05.090Z,3.29
2023-03-20T19:38:35.643Z,3.27
2023-03-20T19:41:04.152Z,3.25
2023-03-20T19:43:32.509Z,3.22
2023-03-20T19:46:01.161Z,3.21
2023-03-20T19:51:19.916Z,3.19
2023-03-20T19:53:48.992Z,3.17
2023-03-20T19:56:18.236Z,3.17
2023-03-20T19:58:46.429Z,3.17
2023-03-20T20:01:15.974Z,3.17
2023-03-20T20:03:44.373Z,3.18
2023-03-20T20:06:15.917Z,3.19
2023-03-20T20:08:49.109Z,3.20
2023-03-20T20:11:18.296Z,3.20
2023-03-20T20:14:05.698Z,3.19
2023-03-20T20:16:37.026Z,3.20
2023-03-20T20:19:10.961Z,3.20
2023-03-20T20:24:27.762Z,3.23
2023-03-20T20:27:15.339Z,3.22
2023-03-20T20:29:49.281Z,3.24
2023-03-20T20:32:23.482Z,3.26
2023-03-20T20:35:38.797Z,3.27
2023-03-20T20:40:32.629Z,3.26
2023-03-20T20:43:02.627Z,3.26
2023-03-20T20:45:43.719Z,3.24
2023-03-20T20:48:12.760Z,3.23
2023-03-20T20:50:42.161Z,3.22
2023-03-20T20:53:13.143Z,3.19
2023-03-20T20:55:42.096Z,3.14
2023-03-20T20:58:12.270Z,3.10
2023-03-20T21:00:51.771Z,3.05
2023-03-20T21:03:22.102Z,2.99
2023-03-20T21:05:52.379Z,2.96
2023-03-20T21:08:20.841Z,2.94
2023-03-20T21:10:55.498Z,2.93
2023-03-20T21:13:24.017Z,2.90
2023-03-20T21:15:59.083Z,2.86
2023-03-20T21:18:28.876Z,2.81
2023-03-20T21:21:06.965Z,2.77
2023-03-20T21:23:35.382Z,2.76
2023-03-20T21:26:03.567Z,2.74
2023-03-20T21:28:32.187Z,2.71
2023-03-20T21:33:48.979Z,2.64
2023-03-20T21:36:17.577Z,2.61
2023-03-20T21:41:34.658Z,2.59
2023-03-20T21:44:03.902Z,2.58
2023-03-20T22:04:06.374Z,2.44
2023-03-20T22:12:48.045Z,2.45
2023-03-20T22:21:22.480Z,2.42
2023-03-20T22:27:10.813Z,2.36
2023-03-20T22:29:41.831Z,2.35
2023-03-20T22:35:22.868Z,2.33
2023-03-20T22:38:04.835Z,2.28
2023-03-20T22:44:04.728Z,2.19
2023-03-20T22:46:03.644Z,2.15
2023-03-20T22:48:34.547Z,2.13
2023-03-20T22:51:02.990Z,2.11
2023-03-20T22:53:34.142Z,2.08
2023-03-20T22:56:02.301Z,2.05
2023-03-20T22:58:30.691Z,2.03
2023-03-20T23:00:59.008Z,2.01
2023-03-20T23:03:40.834Z,2.01
2023-03-20T23:06:11.258Z,2.01
2023-03-20T23:08:49.045Z,2.01
2023-03-20T23:11:20.320Z,2.01
2023-03-20T23:13:51.803Z,2.01
2023-03-20T23:16:20.267Z,2.05
2023-03-20T23:18:48.441Z,2.08
2023-03-20T23:21:17.543Z,2.08
2023-03-20T23:23:45.733Z,2.05
2023-03-20T23:26:14.717Z,2.01
2023-03-20T23:28:43.500Z,1.97
2023-03-20T23:31:12.881Z,1.91
2023-03-20T23:33:42.010Z,1.84
2023-03-20T23:36:21.536Z,1.81
2023-03-20T23:38:57.013Z,1.80
2023-03-20T23:41:49.293Z,1.77
2023-03-20T23:44:13.780Z,1.72
2023-03-20T23:46:42.517Z,1.67
2023-03-20T23:49:11.164Z,1.64
2023-03-20T23:51:39.332Z,1.62
2023-03-20T23:54:07.618Z,1.64
2023-03-20T23:56:36.113Z,1.66
2023-03-20T23:59:20.537Z,1.67
